Terminal Aerodrome Forecast
Issued by NWS

Home | Current Version | Previous Version | Text Only | Print | Product List | Glossary On
Versions: 1 2 3 4 5 6 7 8 9 10 11 12 13 14 15 16 17 18 19 20 21 22 23 24 25 26 27 28
000
FTUS43 KDLH 241738
TAFHIB
TAF
KHIB 241738Z 2418/2518 16010KT P6SM SKC
     FM250100 15004KT P6SM SCT250
     FM250700 16004KT 5SM BR SCT030 SCT250
     FM251000 16004KT 3SM BR BKN012 OVC100
     FM251400 17008KT P6SM BKN020 OVC030=

USA.gov is the U.S. government's official web portal to all federal, state and local government web resources and services.